sensor_id;sensor_type;location;lat;lon;timestamp;P1;durP1;ratioP1;P2;durP2;ratioP2
63902;SDS011;50072;50.678;13.938;2023-01-29T00:01:38;10.05;;;4.75;;
63902;SDS011;50072;50.678;13.938;2023-01-29T00:04:08;10.93;;;5.45;;
63902;SDS011;50072;50.678;13.938;2023-01-29T00:09:10;12.82;;;5.85;;
63902;SDS011;50072;50.678;13.938;2023-01-29T00:11:39;10.50;;;5.45;;
63902;SDS011;50072;50.678;13.938;2023-01-29T00:16:40;10.48;;;5.22;;
63902;SDS011;50072;50.678;13.938;2023-01-29T00:19:08;9.95;;;5.85;;
63902;SDS011;50072;50.678;13.938;2023-01-29T00:21:34;14.70;;;6.05;;
63902;SDS011;50072;50.678;13.938;2023-01-29T00:24:08;10.95;;;6.03;;
63902;SDS011;50072;50.678;13.938;2023-01-29T00:26:40;17.10;;;7.68;;
63902;SDS011;50072;50.678;13.938;2023-01-29T00:31:34;10.80;;;5.22;;
63902;SDS011;50072;50.678;13.938;2023-01-29T00:34:08;13.15;;;5.97;;
63902;SDS011;50072;50.678;13.938;2023-01-29T00:36:35;13.20;;;6.68;;
63902;SDS011;50072;50.678;13.938;2023-01-29T00:39:08;13.52;;;6.55;;
63902;SDS011;50072;50.678;13.938;2023-01-29T00:41:56;10.43;;;4.73;;
63902;SDS011;50072;50.678;13.938;2023-01-29T00:47:38;10.77;;;5.60;;
63902;SDS011;50072;50.678;13.938;2023-01-29T00:50:06;13.18;;;5.80;;
63902;SDS011;50072;50.678;13.938;2023-01-29T00:55:08;12.00;;;6.63;;
63902;SDS011;50072;50.678;13.938;2023-01-29T00:57:36;13.68;;;6.15;;
63902;SDS011;50072;50.678;13.938;2023-01-29T01:02:38;15.88;;;6.88;;
63902;SDS011;50072;50.678;13.938;2023-01-29T01:08:06;15.00;;;7.13;;
63902;SDS011;50072;50.678;13.938;2023-01-29T01:11:06;17.83;;;7.45;;
63902;SDS011;50072;50.678;13.938;2023-01-29T01:13:39;16.67;;;7.78;;
63902;SDS011;50072;50.678;13.938;2023-01-29T01:18:38;14.52;;;6.65;;
63902;SDS011;50072;50.678;13.938;2023-01-29T01:23:41;15.35;;;6.53;;
63902;SDS011;50072;50.678;13.938;2023-01-29T01:26:08;14.38;;;6.65;;
63902;SDS011;50072;50.678;13.938;2023-01-29T01:31:09;19.38;;;9.30;;
63902;SDS011;50072;50.678;13.938;2023-01-29T01:33:38;14.95;;;7.28;;
63902;SDS011;50072;50.678;13.938;2023-01-29T01:36:11;13.63;;;6.22;;
63902;SDS011;50072;50.678;13.938;2023-01-29T01:38:38;13.60;;;6.85;;
63902;SDS011;50072;50.678;13.938;2023-01-29T01:41:10;15.45;;;7.20;;
63902;SDS011;50072;50.678;13.938;2023-01-29T01:46:38;16.75;;;7.50;;
63902;SDS011;50072;50.678;13.938;2023-01-29T01:49:13;16.70;;;7.45;;
63902;SDS011;50072;50.678;13.938;2023-01-29T01:51:52;16.02;;;7.28;;
63902;SDS011;50072;50.678;13.938;2023-01-29T01:57:10;15.60;;;6.85;;
63902;SDS011;50072;50.678;13.938;2023-01-29T02:02:35;15.38;;;7.78;;
63902;SDS011;50072;50.678;13.938;2023-01-29T02:05:38;14.75;;;7.88;;
63902;SDS011;50072;50.678;13.938;2023-01-29T02:11:46;15.93;;;7.28;;
63902;SDS011;50072;50.678;13.938;2023-01-29T02:17:12;20.00;;;7.47;;
63902;SDS011;50072;50.678;13.938;2023-01-29T02:19:46;16.70;;;7.32;;
63902;SDS011;50072;50.678;13.938;2023-01-29T02:31:45;18.33;;;7.30;;
63902;SDS011;50072;50.678;13.938;2023-01-29T02:37:40;18.63;;;6.95;;
63902;SDS011;50072;50.678;13.938;2023-01-29T02:57:39;15.52;;;6.72;;
63902;SDS011;50072;50.678;13.938;2023-01-29T03:00:10;13.02;;;6.05;;
63902;SDS011;50072;50.678;13.938;2023-01-29T03:05:42;11.82;;;6.18;;
63902;SDS011;50072;50.678;13.938;2023-01-29T03:11:12;14.05;;;6.72;;
63902;SDS011;50072;50.678;13.938;2023-01-29T03:13:50;16.20;;;7.30;;
63902;SDS011;50072;50.678;13.938;2023-01-29T03:16:43;14.32;;;7.03;;
63902;SDS011;50072;50.678;13.938;2023-01-29T03:22:10;15.93;;;7.15;;
63902;SDS011;50072;50.678;13.938;2023-01-29T03:24:47;16.65;;;6.90;;
63902;SDS011;50072;50.678;13.938;2023-01-29T03:27:43;15.93;;;7.15;;
63902;SDS011;50072;50.678;13.938;2023-01-29T03:30:42;13.77;;;6.60;;
63902;SDS011;50072;50.678;13.938;2023-01-29T03:33:47;14.60;;;7.07;;
63902;SDS011;50072;50.678;13.938;2023-01-29T03:36:18;16.58;;;7.43;;
63902;SDS011;50072;50.678;13.938;2023-01-29T03:41:44;16.77;;;6.70;;
63902;SDS011;50072;50.678;13.938;2023-01-29T03:55:51;15.77;;;7.60;;
63902;SDS011;50072;50.678;13.938;2023-01-29T04:01:10;17.55;;;8.00;;
63902;SDS011;50072;50.678;13.938;2023-01-29T04:03:47;19.10;;;7.57;;
63902;SDS011;50072;50.678;13.938;2023-01-29T04:11:41;16.50;;;7.60;;
63902;SDS011;50072;50.678;13.938;2023-01-29T04:14:13;19.38;;;7.13;;
63902;SDS011;50072;50.678;13.938;2023-01-29T04:16:47;22.63;;;8.33;;
63902;SDS011;50072;50.678;13.938;2023-01-29T04:19:32;21.50;;;7.85;;
63902;SDS011;50072;50.678;13.938;2023-01-29T04:22:18;17.73;;;7.77;;
63902;SDS011;50072;50.678;13.938;2023-01-29T04:33:45;17.23;;;7.78;;
63902;SDS011;50072;50.678;13.938;2023-01-29T04:51:18;18.23;;;7.00;;
63902;SDS011;50072;50.678;13.938;2023-01-29T05:00:09;16.80;;;7.30;;
63902;SDS011;50072;50.678;13.938;2023-01-29T05:02:47;16.10;;;7.07;;
63902;SDS011;50072;50.678;13.938;2023-01-29T05:05:17;16.58;;;7.53;;
63902;SDS011;50072;50.678;13.938;2023-01-29T05:07:48;15.38;;;7.35;;
63902;SDS011;50072;50.678;13.938;2023-01-29T05:10:16;17.77;;;7.00;;
63902;SDS011;50072;50.678;13.938;2023-01-29T05:12:47;20.35;;;6.93;;
63902;SDS011;50072;50.678;13.938;2023-01-29T05:15:19;20.83;;;7.38;;
63902;SDS011;50072;50.678;13.938;2023-01-29T05:18:08;17.77;;;7.25;;
63902;SDS011;50072;50.678;13.938;2023-01-29T05:20:40;19.52;;;7.15;;
63902;SDS011;50072;50.678;13.938;2023-01-29T05:23:09;15.70;;;6.80;;
63902;SDS011;50072;50.678;13.938;2023-01-29T05:28:39;15.27;;;7.13;;
63902;SDS011;50072;50.678;13.938;2023-01-29T05:31:11;18.57;;;7.80;;
63902;SDS011;50072;50.678;13.938;2023-01-29T05:33:38;18.90;;;7.80;;
63902;SDS011;50072;50.678;13.938;2023-01-29T05:36:09;13.93;;;6.80;;
63902;SDS011;50072;50.678;13.938;2023-01-29T05:38:40;16.48;;;6.75;;
63902;SDS011;50072;50.678;13.938;2023-01-29T05:41:08;15.65;;;7.03;;
63902;SDS011;50072;50.678;13.938;2023-01-29T05:43:41;19.02;;;7.55;;
63902;SDS011;50072;50.678;13.938;2023-01-29T05:46:08;19.63;;;7.63;;
63902;SDS011;50072;50.678;13.938;2023-01-29T05:48:41;17.42;;;7.47;;
63902;SDS011;50072;50.678;13.938;2023-01-29T05:51:08;17.25;;;7.22;;
63902;SDS011;50072;50.678;13.938;2023-01-29T05:53:39;16.75;;;7.80;;
63902;SDS011;50072;50.678;13.938;2023-01-29T05:56:11;16.55;;;7.47;;
63902;SDS011;50072;50.678;13.938;2023-01-29T05:58:38;21.55;;;7.47;;
63902;SDS011;50072;50.678;13.938;2023-01-29T06:01:09;15.82;;;7.22;;
63902;SDS011;50072;50.678;13.938;2023-01-29T06:03:38;16.23;;;7.07;;
63902;SDS011;50072;50.678;13.938;2023-01-29T06:06:10;17.65;;;7.68;;
63902;SDS011;50072;50.678;13.938;2023-01-29T06:11:09;15.77;;;6.47;;
63902;SDS011;50072;50.678;13.938;2023-01-29T06:13:38;19.17;;;7.53;;
63902;SDS011;50072;50.678;13.938;2023-01-29T06:16:07;16.15;;;7.45;;
63902;SDS011;50072;50.678;13.938;2023-01-29T06:18:38;19.00;;;8.35;;
63902;SDS011;50072;50.678;13.938;2023-01-29T06:21:12;17.15;;;7.70;;
63902;SDS011;50072;50.678;13.938;2023-01-29T06:23:38;16.55;;;7.35;;
63902;SDS011;50072;50.678;13.938;2023-01-29T06:26:12;18.15;;;7.75;;
63902;SDS011;50072;50.678;13.938;2023-01-29T06:28:40;19.50;;;7.55;;
63902;SDS011;50072;50.678;13.938;2023-01-29T06:31:08;34.80;;;12.40;;
63902;SDS011;50072;50.678;13.938;2023-01-29T06:33:38;20.17;;;8.75;;
63902;SDS011;50072;50.678;13.938;2023-01-29T06:36:10;18.20;;;8.38;;
63902;SDS011;50072;50.678;13.938;2023-01-29T06:41:12;18.70;;;7.18;;
63902;SDS011;50072;50.678;13.938;2023-01-29T06:46:36;16.73;;;7.85;;
63902;SDS011;50072;50.678;13.938;2023-01-29T06:49:08;18.85;;;8.05;;
63902;SDS011;50072;50.678;13.938;2023-01-29T06:51:38;19.77;;;8.20;;
63902;SDS011;50072;50.678;13.938;2023-01-29T06:54:04;18.70;;;8.13;;
63902;SDS011;50072;50.678;13.938;2023-01-29T06:56:33;17.92;;;7.05;;
63902;SDS011;50072;50.678;13.938;2023-01-29T06:59:00;18.60;;;7.72;;
63902;SDS011;50072;50.678;13.938;2023-01-29T07:01:28;20.00;;;8.35;;
63902;SDS011;50072;50.678;13.938;2023-01-29T07:03:55;20.27;;;8.40;;
63902;SDS011;50072;50.678;13.938;2023-01-29T07:06:25;25.38;;;10.25;;
63902;SDS011;50072;50.678;13.938;2023-01-29T07:08:56;28.00;;;11.00;;
63902;SDS011;50072;50.678;13.938;2023-01-29T07:11:22;19.88;;;8.05;;
63902;SDS011;50072;50.678;13.938;2023-01-29T07:13:48;19.70;;;8.05;;
63902;SDS011;50072;50.678;13.938;2023-01-29T07:16:16;23.17;;;9.52;;
63902;SDS011;50072;50.678;13.938;2023-01-29T07:18:43;21.95;;;10.45;;
63902;SDS011;50072;50.678;13.938;2023-01-29T07:21:10;24.90;;;10.25;;
63902;SDS011;50072;50.678;13.938;2023-01-29T07:23:36;25.75;;;11.77;;
63902;SDS011;50072;50.678;13.938;2023-01-29T07:26:04;25.88;;;11.45;;
63902;SDS011;50072;50.678;13.938;2023-01-29T07:28:35;17.83;;;8.38;;
63902;SDS011;50072;50.678;13.938;2023-01-29T07:31:05;17.25;;;8.35;;
63902;SDS011;50072;50.678;13.938;2023-01-29T07:33:32;15.00;;;7.25;;
63902;SDS011;50072;50.678;13.938;2023-01-29T07:35:59;22.27;;;10.35;;
63902;SDS011;50072;50.678;13.938;2023-01-29T07:38:25;37.85;;;13.65;;
63902;SDS011;50072;50.678;13.938;2023-01-29T07:40:52;32.08;;;13.52;;
63902;SDS011;50072;50.678;13.938;2023-01-29T07:43:18;25.00;;;12.10;;
63902;SDS011;50072;50.678;13.938;2023-01-29T07:45:44;30.15;;;13.80;;
63902;SDS011;50072;50.678;13.938;2023-01-29T07:48:10;28.95;;;14.00;;
63902;SDS011;50072;50.678;13.938;2023-01-29T07:50:38;28.25;;;12.95;;
63902;SDS011;50072;50.678;13.938;2023-01-29T07:53:04;20.42;;;10.55;;
63902;SDS011;50072;50.678;13.938;2023-01-29T07:55:32;20.30;;;10.43;;
63902;SDS011;50072;50.678;13.938;2023-01-29T07:57:59;22.50;;;10.30;;
63902;SDS011;50072;50.678;13.938;2023-01-29T08:00:28;21.52;;;9.65;;
63902;SDS011;50072;50.678;13.938;2023-01-29T08:03:09;26.88;;;11.77;;
63902;SDS011;50072;50.678;13.938;2023-01-29T08:05:38;32.55;;;13.82;;
63902;SDS011;50072;50.678;13.938;2023-01-29T08:08:04;29.88;;;13.32;;
63902;SDS011;50072;50.678;13.938;2023-01-29T08:10:30;36.67;;;15.15;;
63902;SDS011;50072;50.678;13.938;2023-01-29T08:12:58;36.78;;;15.93;;
63902;SDS011;50072;50.678;13.938;2023-01-29T08:15:26;43.25;;;19.20;;
63902;SDS011;50072;50.678;13.938;2023-01-29T08:17:53;44.78;;;21.10;;
63902;SDS011;50072;50.678;13.938;2023-01-29T08:20:20;39.72;;;19.13;;
63902;SDS011;50072;50.678;13.938;2023-01-29T08:22:46;39.83;;;17.75;;
63902;SDS011;50072;50.678;13.938;2023-01-29T08:25:14;31.77;;;15.55;;
63902;SDS011;50072;50.678;13.938;2023-01-29T08:27:41;33.67;;;16.92;;
63902;SDS011;50072;50.678;13.938;2023-01-29T08:30:08;33.50;;;15.48;;
63902;SDS011;50072;50.678;13.938;2023-01-29T08:32:35;28.35;;;12.90;;
63902;SDS011;50072;50.678;13.938;2023-01-29T08:35:01;28.88;;;13.75;;
63902;SDS011;50072;50.678;13.938;2023-01-29T08:37:27;27.58;;;11.45;;
63902;SDS011;50072;50.678;13.938;2023-01-29T08:39:53;29.48;;;11.73;;
63902;SDS011;50072;50.678;13.938;2023-01-29T08:42:19;27.60;;;10.77;;
63902;SDS011;50072;50.678;13.938;2023-01-29T08:44:45;28.25;;;12.10;;
63902;SDS011;50072;50.678;13.938;2023-01-29T08:47:11;25.95;;;12.13;;
63902;SDS011;50072;50.678;13.938;2023-01-29T08:49:38;75.50;;;25.38;;
63902;SDS011;50072;50.678;13.938;2023-01-29T08:52:06;25.40;;;11.20;;
63902;SDS011;50072;50.678;13.938;2023-01-29T08:54:32;44.13;;;16.77;;
63902;SDS011;50072;50.678;13.938;2023-01-29T08:56:58;22.23;;;10.02;;
63902;SDS011;50072;50.678;13.938;2023-01-29T08:59:25;20.77;;;10.00;;
63902;SDS011;50072;50.678;13.938;2023-01-29T09:01:51;22.35;;;10.38;;
63902;SDS011;50072;50.678;13.938;2023-01-29T09:04:17;20.73;;;10.20;;
63902;SDS011;50072;50.678;13.938;2023-01-29T09:06:43;19.38;;;9.25;;
63902;SDS011;50072;50.678;13.938;2023-01-29T09:09:09;20.42;;;9.98;;
63902;SDS011;50072;50.678;13.938;2023-01-29T09:11:36;20.60;;;9.95;;
63902;SDS011;50072;50.678;13.938;2023-01-29T09:14:04;25.58;;;10.48;;
63902;SDS011;50072;50.678;13.938;2023-01-29T09:16:31;21.90;;;9.98;;
63902;SDS011;50072;50.678;13.938;2023-01-29T09:18:57;21.67;;;9.60;;
63902;SDS011;50072;50.678;13.938;2023-01-29T09:21:23;18.42;;;9.02;;
63902;SDS011;50072;50.678;13.938;2023-01-29T09:23:49;26.05;;;10.75;;
63902;SDS011;50072;50.678;13.938;2023-01-29T09:26:15;19.67;;;9.75;;
63902;SDS011;50072;50.678;13.938;2023-01-29T09:28:42;20.55;;;10.18;;
63902;SDS011;50072;50.678;13.938;2023-01-29T09:31:08;30.05;;;12.90;;
63902;SDS011;50072;50.678;13.938;2023-01-29T09:33:35;25.27;;;11.80;;
63902;SDS011;50072;50.678;13.938;2023-01-29T09:36:02;33.85;;;13.60;;
63902;SDS011;50072;50.678;13.938;2023-01-29T09:38:29;31.20;;;13.27;;
63902;SDS011;50072;50.678;13.938;2023-01-29T09:52:03;27.50;;;11.93;;
63902;SDS011;50072;50.678;13.938;2023-01-29T09:54:53;51.47;;;19.25;;
63902;SDS011;50072;50.678;13.938;2023-01-29T10:09:38;21.58;;;9.50;;
63902;SDS011;50072;50.678;13.938;2023-01-29T10:32:52;24.45;;;8.95;;
63902;SDS011;50072;50.678;13.938;2023-01-29T10:35:27;18.73;;;9.73;;
63902;SDS011;50072;50.678;13.938;2023-01-29T11:01:22;20.33;;;9.18;;
63902;SDS011;50072;50.678;13.938;2023-01-29T11:04:03;20.13;;;8.73;;
63902;SDS011;50072;50.678;13.938;2023-01-29T11:06:38;27.88;;;12.50;;
63902;SDS011;50072;50.678;13.938;2023-01-29T11:11:53;19.58;;;10.70;;
63902;SDS011;50072;50.678;13.938;2023-01-29T11:14:33;23.25;;;9.63;;
63902;SDS011;50072;50.678;13.938;2023-01-29T11:22:56;19.25;;;9.27;;
63902;SDS011;50072;50.678;13.938;2023-01-29T11:25:38;20.00;;;9.02;;
63902;SDS011;50072;50.678;13.938;2023-01-29T11:35:37;60.10;;;20.10;;
63902;SDS011;50072;50.678;13.938;2023-01-29T11:41:05;22.17;;;9.32;;
63902;SDS011;50072;50.678;13.938;2023-01-29T11:43:38;28.42;;;10.05;;
63902;SDS011;50072;50.678;13.938;2023-01-29T11:46:12;35.30;;;12.27;;
63902;SDS011;50072;50.678;13.938;2023-01-29T11:48:48;109.30;;;27.83;;
63902;SDS011;50072;50.678;13.938;2023-01-29T11:59:31;15.70;;;8.63;;
63902;SDS011;50072;50.678;13.938;2023-01-29T12:02:28;20.60;;;9.30;;
63902;SDS011;50072;50.678;13.938;2023-01-29T12:07:31;20.95;;;8.75;;
63902;SDS011;50072;50.678;13.938;2023-01-29T12:09:58;19.23;;;8.07;;
63902;SDS011;50072;50.678;13.938;2023-01-29T12:12:29;13.00;;;6.93;;
63902;SDS011;50072;50.678;13.938;2023-01-29T12:15:20;17.13;;;7.00;;
63902;SDS011;50072;50.678;13.938;2023-01-29T12:18:34;12.50;;;6.90;;
63902;SDS011;50072;50.678;13.938;2023-01-29T12:21:19;14.30;;;7.45;;
63902;SDS011;50072;50.678;13.938;2023-01-29T12:26:35;14.75;;;8.13;;
63902;SDS011;50072;50.678;13.938;2023-01-29T12:29:23;16.85;;;9.65;;
63902;SDS011;50072;50.678;13.938;2023-01-29T12:32:13;16.65;;;8.18;;
63902;SDS011;50072;50.678;13.938;2023-01-29T12:40:16;15.95;;;7.43;;
63902;SDS011;50072;50.678;13.938;2023-01-29T12:42:45;15.27;;;7.80;;
63902;SDS011;50072;50.678;13.938;2023-01-29T12:45:16;17.10;;;7.50;;
63902;SDS011;50072;50.678;13.938;2023-01-29T12:47:46;15.52;;;7.35;;
63902;SDS011;50072;50.678;13.938;2023-01-29T12:50:18;17.67;;;8.98;;
63902;SDS011;50072;50.678;13.938;2023-01-29T12:55:21;12.95;;;7.20;;
63902;SDS011;50072;50.678;13.938;2023-01-29T13:01:14;16.80;;;8.32;;
63902;SDS011;50072;50.678;13.938;2023-01-29T13:04:04;18.08;;;7.30;;
63902;SDS011;50072;50.678;13.938;2023-01-29T13:06:38;14.27;;;7.55;;
63902;SDS011;50072;50.678;13.938;2023-01-29T13:09:11;19.27;;;8.93;;
63902;SDS011;50072;50.678;13.938;2023-01-29T13:11:48;20.75;;;9.45;;
63902;SDS011;50072;50.678;13.938;2023-01-29T13:20:18;15.48;;;7.75;;
63902;SDS011;50072;50.678;13.938;2023-01-29T13:26:05;15.10;;;7.70;;
63902;SDS011;50072;50.678;13.938;2023-01-29T13:28:36;17.05;;;7.47;;
63902;SDS011;50072;50.678;13.938;2023-01-29T13:37:02;22.55;;;10.32;;
63902;SDS011;50072;50.678;13.938;2023-01-29T13:40:17;15.65;;;7.90;;
63902;SDS011;50072;50.678;13.938;2023-01-29T13:45:47;19.92;;;9.25;;
63902;SDS011;50072;50.678;13.938;2023-01-29T13:48:20;20.60;;;8.50;;
63902;SDS011;50072;50.678;13.938;2023-01-29T13:50:50;19.08;;;8.75;;
63902;SDS011;50072;50.678;13.938;2023-01-29T13:53:37;15.38;;;7.43;;
63902;SDS011;50072;50.678;13.938;2023-01-29T13:56:55;14.57;;;7.47;;
63902;SDS011;50072;50.678;13.938;2023-01-29T13:59:19;14.55;;;7.47;;
63902;SDS011;50072;50.678;13.938;2023-01-29T14:10:42;25.42;;;10.65;;
63902;SDS011;50072;50.678;13.938;2023-01-29T14:18:49;15.30;;;7.18;;
63902;SDS011;50072;50.678;13.938;2023-01-29T14:21:31;20.42;;;9.77;;
63902;SDS011;50072;50.678;13.938;2023-01-29T14:24:10;22.65;;;9.75;;
63902;SDS011;50072;50.678;13.938;2023-01-29T14:26:44;47.60;;;22.20;;
63902;SDS011;50072;50.678;13.938;2023-01-29T14:34:43;35.53;;;18.42;;
63902;SDS011;50072;50.678;13.938;2023-01-29T14:40:24;15.32;;;8.60;;
63902;SDS011;50072;50.678;13.938;2023-01-29T14:43:15;29.80;;;10.48;;
63902;SDS011;50072;50.678;13.938;2023-01-29T14:45:47;20.48;;;8.52;;
63902;SDS011;50072;50.678;13.938;2023-01-29T14:51:11;22.95;;;10.63;;
63902;SDS011;50072;50.678;13.938;2023-01-29T14:53:53;34.90;;;12.60;;
63902;SDS011;50072;50.678;13.938;2023-01-29T14:59:18;29.92;;;11.75;;
63902;SDS011;50072;50.678;13.938;2023-01-29T15:02:03;16.65;;;7.53;;
63902;SDS011;50072;50.678;13.938;2023-01-29T15:04:48;16.95;;;7.93;;
63902;SDS011;50072;50.678;13.938;2023-01-29T15:07:26;19.02;;;8.82;;
63902;SDS011;50072;50.678;13.938;2023-01-29T15:10:20;20.00;;;9.65;;
63902;SDS011;50072;50.678;13.938;2023-01-29T15:15:56;20.98;;;9.85;;
63902;SDS011;50072;50.678;13.938;2023-01-29T15:18:39;25.08;;;10.98;;
63902;SDS011;50072;50.678;13.938;2023-01-29T15:21:15;24.08;;;9.60;;
63902;SDS011;50072;50.678;13.938;2023-01-29T15:23:44;30.92;;;11.43;;
63902;SDS011;50072;50.678;13.938;2023-01-29T15:26:28;32.67;;;12.35;;
63902;SDS011;50072;50.678;13.938;2023-01-29T15:29:18;34.28;;;11.90;;
63902;SDS011;50072;50.678;13.938;2023-01-29T15:34:16;53.22;;;16.48;;
63902;SDS011;50072;50.678;13.938;2023-01-29T15:36:54;28.13;;;11.70;;
63902;SDS011;50072;50.678;13.938;2023-01-29T15:39:41;41.95;;;17.40;;
63902;SDS011;50072;50.678;13.938;2023-01-29T15:42:13;29.38;;;12.02;;
63902;SDS011;50072;50.678;13.938;2023-01-29T15:44:49;18.77;;;8.90;;
63902;SDS011;50072;50.678;13.938;2023-01-29T15:47:16;17.92;;;8.00;;
63902;SDS011;50072;50.678;13.938;2023-01-29T15:49:46;20.35;;;9.52;;
63902;SDS011;50072;50.678;13.938;2023-01-29T15:52:21;26.80;;;11.65;;
63902;SDS011;50072;50.678;13.938;2023-01-29T16:00:07;15.57;;;8.32;;
63902;SDS011;50072;50.678;13.938;2023-01-29T16:05:38;18.52;;;7.70;;
63902;SDS011;50072;50.678;13.938;2023-01-29T16:08:10;22.67;;;10.20;;
63902;SDS011;50072;50.678;13.938;2023-01-29T16:10:39;14.75;;;8.15;;
63902;SDS011;50072;50.678;13.938;2023-01-29T16:13:19;19.92;;;8.18;;
63902;SDS011;50072;50.678;13.938;2023-01-29T16:18:48;20.75;;;8.60;;
63902;SDS011;50072;50.678;13.938;2023-01-29T16:26:47;28.20;;;12.38;;
63902;SDS011;50072;50.678;13.938;2023-01-29T16:29:18;36.67;;;16.00;;
63902;SDS011;50072;50.678;13.938;2023-01-29T16:34:55;25.60;;;11.88;;
63902;SDS011;50072;50.678;13.938;2023-01-29T16:37:38;22.20;;;8.85;;
63902;SDS011;50072;50.678;13.938;2023-01-29T16:57:50;31.52;;;11.68;;
63902;SDS011;50072;50.678;13.938;2023-01-29T17:00:23;24.73;;;10.77;;
63902;SDS011;50072;50.678;13.938;2023-01-29T17:02:53;31.88;;;13.20;;
63902;SDS011;50072;50.678;13.938;2023-01-29T17:05:37;22.80;;;10.23;;
63902;SDS011;50072;50.678;13.938;2023-01-29T17:08:20;19.17;;;9.15;;
63902;SDS011;50072;50.678;13.938;2023-01-29T17:13:41;19.17;;;9.18;;
63902;SDS011;50072;50.678;13.938;2023-01-29T17:19:13;19.77;;;9.02;;
63902;SDS011;50072;50.678;13.938;2023-01-29T17:21:48;24.38;;;10.93;;
63902;SDS011;50072;50.678;13.938;2023-01-29T17:26:48;26.48;;;11.45;;
63902;SDS011;50072;50.678;13.938;2023-01-29T17:29:23;29.90;;;11.65;;
63902;SDS011;50072;50.678;13.938;2023-01-29T17:32:07;26.98;;;11.05;;
63902;SDS011;50072;50.678;13.938;2023-01-29T17:34:33;32.50;;;15.50;;
63902;SDS011;50072;50.678;13.938;2023-01-29T17:36:59;29.02;;;12.43;;
63902;SDS011;50072;50.678;13.938;2023-01-29T17:39:26;24.15;;;10.38;;
63902;SDS011;50072;50.678;13.938;2023-01-29T17:44:39;22.33;;;10.02;;
63902;SDS011;50072;50.678;13.938;2023-01-29T17:47:10;25.13;;;10.98;;
63902;SDS011;50072;50.678;13.938;2023-01-29T17:49:38;24.95;;;11.20;;
63902;SDS011;50072;50.678;13.938;2023-01-29T17:52:08;26.90;;;12.43;;
63902;SDS011;50072;50.678;13.938;2023-01-29T17:54:41;29.13;;;13.45;;
63902;SDS011;50072;50.678;13.938;2023-01-29T17:57:09;24.63;;;13.02;;
63902;SDS011;50072;50.678;13.938;2023-01-29T17:59:39;26.52;;;13.57;;
63902;SDS011;50072;50.678;13.938;2023-01-29T18:04:38;28.23;;;13.80;;
63902;SDS011;50072;50.678;13.938;2023-01-29T18:07:10;27.05;;;14.52;;
63902;SDS011;50072;50.678;13.938;2023-01-29T18:09:38;28.85;;;13.85;;
63902;SDS011;50072;50.678;13.938;2023-01-29T18:12:07;31.90;;;13.68;;
63902;SDS011;50072;50.678;13.938;2023-01-29T18:14:38;28.08;;;13.50;;
63902;SDS011;50072;50.678;13.938;2023-01-29T18:19:40;27.42;;;13.60;;
63902;SDS011;50072;50.678;13.938;2023-01-29T18:22:08;26.80;;;12.80;;
63902;SDS011;50072;50.678;13.938;2023-01-29T18:24:39;28.88;;;12.85;;
63902;SDS011;50072;50.678;13.938;2023-01-29T18:27:11;29.20;;;13.63;;
63902;SDS011;50072;50.678;13.938;2023-01-29T18:29:38;35.42;;;15.57;;
63902;SDS011;50072;50.678;13.938;2023-01-29T18:32:08;35.63;;;15.40;;
63902;SDS011;50072;50.678;13.938;2023-01-29T18:37:08;35.75;;;15.25;;
63902;SDS011;50072;50.678;13.938;2023-01-29T18:39:39;33.65;;;13.93;;
63902;SDS011;50072;50.678;13.938;2023-01-29T18:42:06;32.75;;;13.52;;
63902;SDS011;50072;50.678;13.938;2023-01-29T18:44:38;32.08;;;14.38;;
63902;SDS011;50072;50.678;13.938;2023-01-29T18:49:37;52.88;;;20.25;;
63902;SDS011;50072;50.678;13.938;2023-01-29T18:52:11;41.25;;;18.98;;
63902;SDS011;50072;50.678;13.938;2023-01-29T18:54:38;40.28;;;17.70;;
63902;SDS011;50072;50.678;13.938;2023-01-29T18:57:05;31.98;;;15.10;;
63902;SDS011;50072;50.678;13.938;2023-01-29T18:59:38;37.95;;;15.57;;
63902;SDS011;50072;50.678;13.938;2023-01-29T19:02:12;41.10;;;16.23;;
63902;SDS011;50072;50.678;13.938;2023-01-29T19:04:46;27.92;;;12.20;;
63902;SDS011;50072;50.678;13.938;2023-01-29T19:07:20;28.13;;;13.52;;
63902;SDS011;50072;50.678;13.938;2023-01-29T19:09:46;34.22;;;13.40;;
63902;SDS011;50072;50.678;13.938;2023-01-29T19:12:17;32.13;;;13.77;;
63902;SDS011;50072;50.678;13.938;2023-01-29T19:17:30;31.98;;;13.02;;
63902;SDS011;50072;50.678;13.938;2023-01-29T19:20:07;33.78;;;11.95;;
63902;SDS011;50072;50.678;13.938;2023-01-29T19:22:38;28.58;;;12.90;;
63902;SDS011;50072;50.678;13.938;2023-01-29T19:25:08;26.05;;;10.85;;
63902;SDS011;50072;50.678;13.938;2023-01-29T19:27:38;20.80;;;9.77;;
63902;SDS011;50072;50.678;13.938;2023-01-29T19:30:06;24.58;;;10.80;;
63902;SDS011;50072;50.678;13.938;2023-01-29T19:32:34;24.27;;;10.35;;
63902;SDS011;50072;50.678;13.938;2023-01-29T19:35:02;24.38;;;11.80;;
63902;SDS011;50072;50.678;13.938;2023-01-29T19:40:05;22.20;;;11.77;;
63902;SDS011;50072;50.678;13.938;2023-01-29T19:42:38;26.15;;;12.57;;
63902;SDS011;50072;50.678;13.938;2023-01-29T19:45:07;28.05;;;12.18;;
63902;SDS011;50072;50.678;13.938;2023-01-29T19:47:39;91.85;;;34.30;;
63902;SDS011;50072;50.678;13.938;2023-01-29T19:50:06;37.08;;;15.18;;
63902;SDS011;50072;50.678;13.938;2023-01-29T19:52:38;27.73;;;12.38;;
63902;SDS011;50072;50.678;13.938;2023-01-29T19:55:06;27.70;;;11.55;;
63902;SDS011;50072;50.678;13.938;2023-01-29T19:57:38;28.17;;;12.38;;
63902;SDS011;50072;50.678;13.938;2023-01-29T20:00:04;33.55;;;14.30;;
63902;SDS011;50072;50.678;13.938;2023-01-29T20:02:37;33.03;;;14.27;;
63902;SDS011;50072;50.678;13.938;2023-01-29T20:07:38;32.60;;;12.57;;
63902;SDS011;50072;50.678;13.938;2023-01-29T20:10:08;27.17;;;13.43;;
63902;SDS011;50072;50.678;13.938;2023-01-29T20:12:42;27.38;;;12.70;;
63902;SDS011;50072;50.678;13.938;2023-01-29T20:18:08;32.05;;;13.80;;
63902;SDS011;50072;50.678;13.938;2023-01-29T20:20:47;28.45;;;12.43;;
63902;SDS011;50072;50.678;13.938;2023-01-29T20:23:17;27.77;;;13.00;;
63902;SDS011;50072;50.678;13.938;2023-01-29T20:25:44;42.42;;;16.65;;
63902;SDS011;50072;50.678;13.938;2023-01-29T20:30:46;32.40;;;14.20;;
63902;SDS011;50072;50.678;13.938;2023-01-29T20:33:13;27.33;;;12.80;;
63902;SDS011;50072;50.678;13.938;2023-01-29T20:35:39;28.85;;;13.52;;
63902;SDS011;50072;50.678;13.938;2023-01-29T20:38:08;35.55;;;14.40;;
63902;SDS011;50072;50.678;13.938;2023-01-29T20:40:38;35.67;;;15.80;;
63902;SDS011;50072;50.678;13.938;2023-01-29T20:43:08;34.03;;;14.25;;
63902;SDS011;50072;50.678;13.938;2023-01-29T20:45:40;41.55;;;16.13;;
63902;SDS011;50072;50.678;13.938;2023-01-29T20:50:40;37.75;;;15.00;;
63902;SDS011;50072;50.678;13.938;2023-01-29T20:53:09;36.78;;;14.65;;
63902;SDS011;50072;50.678;13.938;2023-01-29T20:55:41;27.60;;;12.80;;
63902;SDS011;50072;50.678;13.938;2023-01-29T20:58:11;28.20;;;12.07;;
63902;SDS011;50072;50.678;13.938;2023-01-29T21:00:38;31.50;;;12.27;;
63902;SDS011;50072;50.678;13.938;2023-01-29T21:03:08;31.55;;;12.80;;
63902;SDS011;50072;50.678;13.938;2023-01-29T21:05:38;32.53;;;12.93;;
63902;SDS011;50072;50.678;13.938;2023-01-29T21:08:04;27.08;;;12.25;;